sensor_id;sensor_type;location;lat;lon;timestamp;P1;durP1;ratioP1;P2;durP2;ratioP2
32788;SDS011;19141;48.980;8.410;2023-05-16T04:22:33;20.77;;;10.40;;
32788;SDS011;19141;48.980;8.410;2023-05-16T04:24:58;23.67;;;10.88;;
32788;SDS011;19141;48.980;8.410;2023-05-16T04:27:23;26.90;;;10.68;;
32788;SDS011;19141;48.980;8.410;2023-05-16T04:29:51;28.60;;;10.10;;
32788;SDS011;19141;48.980;8.410;2023-05-16T04:32:16;22.17;;;10.75;;
32788;SDS011;19141;48.980;8.410;2023-05-16T04:34:42;22.67;;;9.38;;
32788;SDS011;19141;48.980;8.410;2023-05-16T04:37:09;24.65;;;10.90;;
32788;SDS011;19141;48.980;8.410;2023-05-16T04:39:35;22.70;;;9.57;;
32788;SDS011;19141;48.980;8.410;2023-05-16T04:42:00;23.80;;;9.88;;
32788;SDS011;19141;48.980;8.410;2023-05-16T04:44:27;21.65;;;9.60;;
32788;SDS011;19141;48.980;8.410;2023-05-16T04:46:52;22.55;;;9.90;;
32788;SDS011;19141;48.980;8.410;2023-05-16T04:49:18;21.38;;;9.68;;
32788;SDS011;19141;48.980;8.410;2023-05-16T04:51:44;22.35;;;10.20;;
32788;SDS011;19141;48.980;8.410;2023-05-16T04:54:10;22.20;;;10.50;;
32788;SDS011;19141;48.980;8.410;2023-05-16T04:56:36;20.45;;;9.30;;
32788;SDS011;19141;48.980;8.410;2023-05-16T04:59:02;21.08;;;8.75;;
32788;SDS011;19141;48.980;8.410;2023-05-16T05:01:28;21.85;;;9.27;;
32788;SDS011;19141;48.980;8.410;2023-05-16T05:03:54;19.88;;;9.32;;
32788;SDS011;19141;48.980;8.410;2023-05-16T05:06:19;19.73;;;9.93;;
32788;SDS011;19141;48.980;8.410;2023-05-16T05:08:45;16.92;;;8.50;;
32788;SDS011;19141;48.980;8.410;2023-05-16T05:11:10;20.25;;;9.45;;
32788;SDS011;19141;48.980;8.410;2023-05-16T05:13:36;18.85;;;9.25;;
32788;SDS011;19141;48.980;8.410;2023-05-16T05:16:01;18.73;;;8.90;;
32788;SDS011;19141;48.980;8.410;2023-05-16T05:18:29;24.25;;;8.73;;
32788;SDS011;19141;48.980;8.410;2023-05-16T05:20:54;19.45;;;8.15;;
32788;SDS011;19141;48.980;8.410;2023-05-16T05:23:20;21.20;;;8.73;;
32788;SDS011;19141;48.980;8.410;2023-05-16T05:25:46;15.07;;;8.35;;
32788;SDS011;19141;48.980;8.410;2023-05-16T05:28:11;19.10;;;8.77;;
32788;SDS011;19141;48.980;8.410;2023-05-16T05:30:36;20.13;;;9.20;;
32788;SDS011;19141;48.980;8.410;2023-05-16T05:33:02;16.95;;;8.60;;
32788;SDS011;19141;48.980;8.410;2023-05-16T05:35:27;18.30;;;8.88;;
32788;SDS011;19141;48.980;8.410;2023-05-16T05:37:53;17.00;;;8.27;;
32788;SDS011;19141;48.980;8.410;2023-05-16T05:40:18;19.10;;;9.15;;
32788;SDS011;19141;48.980;8.410;2023-05-16T05:42:44;20.25;;;9.10;;
32788;SDS011;19141;48.980;8.410;2023-05-16T05:45:09;14.95;;;7.95;;
32788;SDS011;19141;48.980;8.410;2023-05-16T05:47:35;18.30;;;7.90;;
32788;SDS011;19141;48.980;8.410;2023-05-16T05:50:01;16.77;;;8.43;;
32788;SDS011;19141;48.980;8.410;2023-05-16T05:52:27;12.35;;;6.85;;
32788;SDS011;19141;48.980;8.410;2023-05-16T05:54:53;16.17;;;7.82;;
32788;SDS011;19141;48.980;8.410;2023-05-16T05:57:18;18.42;;;7.75;;
32788;SDS011;19141;48.980;8.410;2023-05-16T05:59:44;16.55;;;7.35;;
32788;SDS011;19141;48.980;8.410;2023-05-16T06:02:10;13.25;;;7.13;;
32788;SDS011;19141;48.980;8.410;2023-05-16T06:04:35;15.20;;;8.25;;
32788;SDS011;19141;48.980;8.410;2023-05-16T06:07:00;14.35;;;7.15;;
32788;SDS011;19141;48.980;8.410;2023-05-16T06:09:26;19.33;;;8.20;;
32788;SDS011;19141;48.980;8.410;2023-05-16T06:11:51;14.70;;;7.22;;
32788;SDS011;19141;48.980;8.410;2023-05-16T06:14:17;16.90;;;8.23;;
32788;SDS011;19141;48.980;8.410;2023-05-16T06:16:42;14.18;;;6.60;;
32788;SDS011;19141;48.980;8.410;2023-05-16T06:19:08;16.00;;;6.38;;
32788;SDS011;19141;48.980;8.410;2023-05-16T06:21:33;14.02;;;7.05;;
32788;SDS011;19141;48.980;8.410;2023-05-16T06:23:58;15.07;;;6.63;;
32788;SDS011;19141;48.980;8.410;2023-05-16T06:26:24;15.30;;;6.43;;
32788;SDS011;19141;48.980;8.410;2023-05-16T06:28:49;12.95;;;6.00;;
32788;SDS011;19141;48.980;8.410;2023-05-16T06:31:15;10.13;;;5.50;;
32788;SDS011;19141;48.980;8.410;2023-05-16T06:33:40;12.20;;;5.68;;
32788;SDS011;19141;48.980;8.410;2023-05-16T06:36:06;12.50;;;4.85;;
32788;SDS011;19141;48.980;8.410;2023-05-16T06:38:31;9.63;;;4.65;;
32788;SDS011;19141;48.980;8.410;2023-05-16T06:40:57;7.82;;;3.83;;
32788;SDS011;19141;48.980;8.410;2023-05-16T06:43:22;13.80;;;5.10;;
32788;SDS011;19141;48.980;8.410;2023-05-16T06:45:47;10.15;;;4.78;;
32788;SDS011;19141;48.980;8.410;2023-05-16T06:48:13;5.80;;;3.20;;
32788;SDS011;19141;48.980;8.410;2023-05-16T06:50:39;5.72;;;3.55;;
32788;SDS011;19141;48.980;8.410;2023-05-16T06:53:05;7.30;;;4.03;;
32788;SDS011;19141;48.980;8.410;2023-05-16T06:55:31;9.05;;;4.40;;
32788;SDS011;19141;48.980;8.410;2023-05-16T06:57:57;6.10;;;3.40;;
32788;SDS011;19141;48.980;8.410;2023-05-16T07:00:23;6.00;;;3.40;;
32788;SDS011;19141;48.980;8.410;2023-05-16T07:02:48;6.05;;;3.00;;
32788;SDS011;19141;48.980;8.410;2023-05-16T07:05:14;4.90;;;3.13;;
32788;SDS011;19141;48.980;8.410;2023-05-16T07:07:40;6.10;;;2.75;;
32788;SDS011;19141;48.980;8.410;2023-05-16T07:10:05;4.72;;;2.58;;
32788;SDS011;19141;48.980;8.410;2023-05-16T07:12:31;4.47;;;2.35;;
32788;SDS011;19141;48.980;8.410;2023-05-16T07:14:56;5.60;;;2.40;;
32788;SDS011;19141;48.980;8.410;2023-05-16T07:17:22;4.68;;;2.58;;
32788;SDS011;19141;48.980;8.410;2023-05-16T07:19:48;4.75;;;2.63;;
32788;SDS011;19141;48.980;8.410;2023-05-16T07:22:14;3.17;;;1.95;;
32788;SDS011;19141;48.980;8.410;2023-05-16T07:24:39;4.90;;;1.98;;
32788;SDS011;19141;48.980;8.410;2023-05-16T07:27:05;3.30;;;1.80;;
32788;SDS011;19141;48.980;8.410;2023-05-16T07:29:30;2.88;;;1.63;;
32788;SDS011;19141;48.980;8.410;2023-05-16T07:31:56;2.90;;;1.40;;
32788;SDS011;19141;48.980;8.410;2023-05-16T07:34:21;2.67;;;1.60;;
32788;SDS011;19141;48.980;8.410;2023-05-16T07:36:47;2.88;;;1.98;;
32788;SDS011;19141;48.980;8.410;2023-05-16T07:39:12;1.55;;;0.82;;
32788;SDS011;19141;48.980;8.410;2023-05-16T07:41:38;1.92;;;1.35;;
32788;SDS011;19141;48.980;8.410;2023-05-16T07:44:04;1.67;;;1.35;;
32788;SDS011;19141;48.980;8.410;2023-05-16T07:46:29;1.55;;;1.00;;
32788;SDS011;19141;48.980;8.410;2023-05-16T07:48:54;1.15;;;0.85;;
32788;SDS011;19141;48.980;8.410;2023-05-16T07:51:20;1.20;;;0.90;;
32788;SDS011;19141;48.980;8.410;2023-05-16T07:53:45;2.65;;;1.05;;
32788;SDS011;19141;48.980;8.410;2023-05-16T07:56:11;1.48;;;0.85;;
32788;SDS011;19141;48.980;8.410;2023-05-16T07:58:37;1.30;;;0.98;;
32788;SDS011;19141;48.980;8.410;2023-05-16T08:01:02;1.38;;;1.10;;
32788;SDS011;19141;48.980;8.410;2023-05-16T08:03:28;1.27;;;1.00;;
32788;SDS011;19141;48.980;8.410;2023-05-16T08:05:53;1.70;;;1.02;;
32788;SDS011;19141;48.980;8.410;2023-05-16T08:08:19;1.77;;;1.10;;
32788;SDS011;19141;48.980;8.410;2023-05-16T08:10:44;0.82;;;0.73;;
32788;SDS011;19141;48.980;8.410;2023-05-16T08:13:09;1.63;;;0.95;;
32788;SDS011;19141;48.980;8.410;2023-05-16T08:15:35;1.20;;;0.85;;
32788;SDS011;19141;48.980;8.410;2023-05-16T08:18:01;1.05;;;0.70;;
32788;SDS011;19141;48.980;8.410;2023-05-16T08:20:26;3.58;;;1.20;;
32788;SDS011;19141;48.980;8.410;2023-05-16T08:22:52;1.02;;;0.80;;
32788;SDS011;19141;48.980;8.410;2023-05-16T08:25:18;1.65;;;0.95;;
32788;SDS011;19141;48.980;8.410;2023-05-16T08:27:44;1.67;;;1.00;;
32788;SDS011;19141;48.980;8.410;2023-05-16T08:30:10;1.30;;;1.00;;
32788;SDS011;19141;48.980;8.410;2023-05-16T08:32:37;0.85;;;0.60;;
32788;SDS011;19141;48.980;8.410;2023-05-16T08:35:02;1.33;;;0.80;;
32788;SDS011;19141;48.980;8.410;2023-05-16T08:37:28;1.30;;;1.00;;
32788;SDS011;19141;48.980;8.410;2023-05-16T08:39:53;1.60;;;1.00;;
32788;SDS011;19141;48.980;8.410;2023-05-16T08:42:19;1.65;;;1.00;;
32788;SDS011;19141;48.980;8.410;2023-05-16T08:44:44;1.90;;;0.93;;
32788;SDS011;19141;48.980;8.410;2023-05-16T08:47:11;1.60;;;1.30;;
32788;SDS011;19141;48.980;8.410;2023-05-16T08:49:40;1.33;;;1.05;;
32788;SDS011;19141;48.980;8.410;2023-05-16T08:52:07;1.15;;;0.98;;
32788;SDS011;19141;48.980;8.410;2023-05-16T08:54:33;1.00;;;0.90;;
32788;SDS011;19141;48.980;8.410;2023-05-16T08:57:00;0.85;;;0.75;;
32788;SDS011;19141;48.980;8.410;2023-05-16T08:59:27;1.15;;;1.00;;
32788;SDS011;19141;48.980;8.410;2023-05-16T09:01:54;1.95;;;0.82;;
32788;SDS011;19141;48.980;8.410;2023-05-16T09:04:19;1.38;;;0.90;;
32788;SDS011;19141;48.980;8.410;2023-05-16T09:06:46;0.93;;;0.82;;
32788;SDS011;19141;48.980;8.410;2023-05-16T09:09:12;2.05;;;1.27;;
32788;SDS011;19141;48.980;8.410;2023-05-16T09:11:38;1.23;;;0.90;;
32788;SDS011;19141;48.980;8.410;2023-05-16T09:14:03;1.05;;;0.93;;
32788;SDS011;19141;48.980;8.410;2023-05-16T09:16:29;1.02;;;0.90;;
32788;SDS011;19141;48.980;8.410;2023-05-16T09:18:56;1.48;;;0.90;;
32788;SDS011;19141;48.980;8.410;2023-05-16T09:21:25;1.00;;;1.00;;
32788;SDS011;19141;48.980;8.410;2023-05-16T09:23:56;1.30;;;0.90;;
32788;SDS011;19141;48.980;8.410;2023-05-16T09:26:26;1.00;;;0.70;;
32788;SDS011;19141;48.980;8.410;2023-05-16T09:28:52;0.80;;;0.80;;
32788;SDS011;19141;48.980;8.410;2023-05-16T09:31:23;1.23;;;0.82;;
32788;SDS011;19141;48.980;8.410;2023-05-16T09:33:57;1.35;;;1.10;;
32788;SDS011;19141;48.980;8.410;2023-05-16T09:36:22;1.35;;;0.90;;
32788;SDS011;19141;48.980;8.410;2023-05-16T09:38:52;1.10;;;1.00;;
32788;SDS011;19141;48.980;8.410;2023-05-16T09:41:20;0.90;;;0.80;;
32788;SDS011;19141;48.980;8.410;2023-05-16T09:43:46;1.42;;;1.00;;
32788;SDS011;19141;48.980;8.410;2023-05-16T09:46:14;1.10;;;1.00;;
32788;SDS011;19141;48.980;8.410;2023-05-16T09:48:43;1.10;;;0.85;;
32788;SDS011;19141;48.980;8.410;2023-05-16T09:51:10;1.50;;;0.77;;
32788;SDS011;19141;48.980;8.410;2023-05-16T09:53:37;0.80;;;0.80;;
32788;SDS011;19141;48.980;8.410;2023-05-16T09:58:30;1.25;;;0.77;;
32788;SDS011;19141;48.980;8.410;2023-05-16T10:00:56;0.70;;;0.70;;
32788;SDS011;19141;48.980;8.410;2023-05-16T10:03:23;1.75;;;0.75;;
32788;SDS011;19141;48.980;8.410;2023-05-16T10:05:50;1.05;;;0.93;;
32788;SDS011;19141;48.980;8.410;2023-05-16T10:08:18;1.13;;;1.02;;
32788;SDS011;19141;48.980;8.410;2023-05-16T10:10:45;0.70;;;0.70;;
32788;SDS011;19141;48.980;8.410;2023-05-16T10:13:20;0.60;;;0.60;;
32788;SDS011;19141;48.980;8.410;2023-05-16T10:15:47;0.90;;;0.90;;
32788;SDS011;19141;48.980;8.410;2023-05-16T10:18:20;1.50;;;0.90;;
32788;SDS011;19141;48.980;8.410;2023-05-16T10:20:47;0.85;;;0.60;;
32788;SDS011;19141;48.980;8.410;2023-05-16T10:23:17;1.00;;;0.90;;
32788;SDS011;19141;48.980;8.410;2023-05-16T10:25:44;0.95;;;0.70;;
32788;SDS011;19141;48.980;8.410;2023-05-16T10:28:16;0.77;;;0.60;;
32788;SDS011;19141;48.980;8.410;2023-05-16T10:30:43;0.85;;;0.60;;
32788;SDS011;19141;48.980;8.410;2023-05-16T10:33:11;0.50;;;0.50;;
32788;SDS011;19141;48.980;8.410;2023-05-16T10:35:37;0.90;;;0.50;;
32788;SDS011;19141;48.980;8.410;2023-05-16T10:38:04;0.65;;;0.60;;
32788;SDS011;19141;48.980;8.410;2023-05-16T10:40:30;0.55;;;0.55;;
32788;SDS011;19141;48.980;8.410;2023-05-16T10:42:57;1.05;;;0.77;;
32788;SDS011;19141;48.980;8.410;2023-05-16T10:45:24;0.43;;;0.43;;
32788;SDS011;19141;48.980;8.410;2023-05-16T10:47:50;0.55;;;0.55;;
32788;SDS011;19141;48.980;8.410;2023-05-16T10:50:43;0.60;;;0.60;;
32788;SDS011;19141;48.980;8.410;2023-05-16T10:53:22;0.75;;;0.70;;
32788;SDS011;19141;48.980;8.410;2023-05-16T11:09:06;0.65;;;0.47;;
32788;SDS011;19141;48.980;8.410;2023-05-16T11:14:06;0.35;;;0.35;;
32788;SDS011;19141;48.980;8.410;2023-05-16T11:16:33;0.43;;;0.43;;
32788;SDS011;19141;48.980;8.410;2023-05-16T11:19:06;0.45;;;0.40;;
32788;SDS011;19141;48.980;8.410;2023-05-16T11:24:32;0.60;;;0.60;;
32788;SDS011;19141;48.980;8.410;2023-05-16T11:26:59;0.40;;;0.40;;
32788;SDS011;19141;48.980;8.410;2023-05-16T11:29:32;0.30;;;0.30;;
32788;SDS011;19141;48.980;8.410;2023-05-16T11:31:59;0.47;;;0.40;;
32788;SDS011;19141;48.980;8.410;2023-05-16T11:34:25;0.25;;;0.25;;
32788;SDS011;19141;48.980;8.410;2023-05-16T11:36:51;0.32;;;0.32;;
32788;SDS011;19141;48.980;8.410;2023-05-16T11:39:16;0.45;;;0.45;;
32788;SDS011;19141;48.980;8.410;2023-05-16T11:41:43;1.70;;;0.50;;
32788;SDS011;19141;48.980;8.410;2023-05-16T11:44:10;0.88;;;0.50;;
32788;SDS011;19141;48.980;8.410;2023-05-16T11:46:37;0.88;;;0.50;;
32788;SDS011;19141;48.980;8.410;2023-05-16T11:49:05;3.20;;;0.57;;
32788;SDS011;19141;48.980;8.410;2023-05-16T11:51:31;0.40;;;0.30;;
32788;SDS011;19141;48.980;8.410;2023-05-16T11:53:58;0.40;;;0.40;;
32788;SDS011;19141;48.980;8.410;2023-05-16T11:56:24;1.10;;;1.00;;
32788;SDS011;19141;48.980;8.410;2023-05-16T11:58:50;1.05;;;0.40;;
32788;SDS011;19141;48.980;8.410;2023-05-16T12:01:15;0.40;;;0.32;;
32788;SDS011;19141;48.980;8.410;2023-05-16T12:03:41;0.70;;;0.50;;
32788;SDS011;19141;48.980;8.410;2023-05-16T12:06:06;0.70;;;0.40;;
32788;SDS011;19141;48.980;8.410;2023-05-16T12:08:32;0.68;;;0.60;;
32788;SDS011;19141;48.980;8.410;2023-05-16T12:10:58;0.63;;;0.60;;
32788;SDS011;19141;48.980;8.410;2023-05-16T12:13:24;0.75;;;0.60;;
32788;SDS011;19141;48.980;8.410;2023-05-16T12:15:50;0.32;;;0.32;;
32788;SDS011;19141;48.980;8.410;2023-05-16T12:18:19;0.55;;;0.55;;
32788;SDS011;19141;48.980;8.410;2023-05-16T12:20:45;2.30;;;0.50;;
32788;SDS011;19141;48.980;8.410;2023-05-16T12:23:11;0.60;;;0.40;;
32788;SDS011;19141;48.980;8.410;2023-05-16T12:25:37;0.80;;;0.68;;
32788;SDS011;19141;48.980;8.410;2023-05-16T12:28:11;0.82;;;0.60;;
32788;SDS011;19141;48.980;8.410;2023-05-16T12:30:39;1.23;;;0.50;;
32788;SDS011;19141;48.980;8.410;2023-05-16T12:33:09;0.50;;;0.50;;
32788;SDS011;19141;48.980;8.410;2023-05-16T12:35:38;0.40;;;0.40;;
32788;SDS011;19141;48.980;8.410;2023-05-16T12:38:08;1.08;;;0.60;;
32788;SDS011;19141;48.980;8.410;2023-05-16T12:40:36;2.35;;;0.80;;
32788;SDS011;19141;48.980;8.410;2023-05-16T12:43:04;0.68;;;0.68;;
32788;SDS011;19141;48.980;8.410;2023-05-16T12:45:36;1.20;;;0.90;;
32788;SDS011;19141;48.980;8.410;2023-05-16T12:48:05;1.05;;;0.88;;
32788;SDS011;19141;48.980;8.410;2023-05-16T12:50:37;0.77;;;0.77;;
32788;SDS011;19141;48.980;8.410;2023-05-16T12:53:03;1.15;;;0.88;;
32788;SDS011;19141;48.980;8.410;2023-05-16T12:55:28;3.05;;;0.90;;
32788;SDS011;19141;48.980;8.410;2023-05-16T12:57:54;1.17;;;0.93;;
32788;SDS011;19141;48.980;8.410;2023-05-16T13:00:20;1.33;;;0.90;;
32788;SDS011;19141;48.980;8.410;2023-05-16T13:02:47;1.80;;;1.20;;
32788;SDS011;19141;48.980;8.410;2023-05-16T13:05:13;2.05;;;0.98;;
32788;SDS011;19141;48.980;8.410;2023-05-16T13:07:38;1.13;;;1.02;;
32788;SDS011;19141;48.980;8.410;2023-05-16T13:10:08;0.90;;;0.90;;
32788;SDS011;19141;48.980;8.410;2023-05-16T13:12:38;1.42;;;0.90;;
32788;SDS011;19141;48.980;8.410;2023-05-16T13:15:05;1.85;;;1.15;;
32788;SDS011;19141;48.980;8.410;2023-05-16T13:17:32;1.38;;;0.93;;
32788;SDS011;19141;48.980;8.410;2023-05-16T13:20:01;2.83;;;1.10;;
32788;SDS011;19141;48.980;8.410;2023-05-16T13:22:36;0.90;;;0.90;;
32788;SDS011;19141;48.980;8.410;2023-05-16T13:25:02;1.50;;;1.05;;
32788;SDS011;19141;48.980;8.410;2023-05-16T13:27:28;2.42;;;1.20;;
32788;SDS011;19141;48.980;8.410;2023-05-16T13:29:54;3.13;;;1.17;;
32788;SDS011;19141;48.980;8.410;2023-05-16T13:32:20;1.70;;;1.00;;
32788;SDS011;19141;48.980;8.410;2023-05-16T13:34:46;2.00;;;0.98;;
32788;SDS011;19141;48.980;8.410;2023-05-16T13:37:11;2.38;;;1.00;;
32788;SDS011;19141;48.980;8.410;2023-05-16T13:39:36;3.25;;;1.00;;
32788;SDS011;19141;48.980;8.410;2023-05-16T13:42:02;1.80;;;0.80;;
32788;SDS011;19141;48.980;8.410;2023-05-16T13:44:28;1.20;;;1.10;;
32788;SDS011;19141;48.980;8.410;2023-05-16T13:46:53;1.35;;;1.08;;
32788;SDS011;19141;48.980;8.410;2023-05-16T13:49:18;2.30;;;1.08;;
32788;SDS011;19141;48.980;8.410;2023-05-16T13:51:44;1.50;;;0.82;;
32788;SDS011;19141;48.980;8.410;2023-05-16T13:54:11;3.22;;;1.65;;
32788;SDS011;19141;48.980;8.410;2023-05-16T13:56:36;1.77;;;1.00;;
32788;SDS011;19141;48.980;8.410;2023-05-16T13:59:02;5.55;;;1.05;;
32788;SDS011;19141;48.980;8.410;2023-05-16T14:01:27;1.23;;;0.93;;
32788;SDS011;19141;48.980;8.410;2023-05-16T14:03:52;3.25;;;1.08;;
32788;SDS011;19141;48.980;8.410;2023-05-16T14:06:18;0.70;;;0.65;;
32788;SDS011;19141;48.980;8.410;2023-05-16T14:08:43;1.88;;;1.05;;
32788;SDS011;19141;48.980;8.410;2023-05-16T14:11:09;2.03;;;1.00;;
32788;SDS011;19141;48.980;8.410;2023-05-16T14:13:34;1.17;;;0.75;;
32788;SDS011;19141;48.980;8.410;2023-05-16T14:15:59;1.38;;;0.80;;
32788;SDS011;19141;48.980;8.410;2023-05-16T14:18:26;0.82;;;0.80;;
32788;SDS011;19141;48.980;8.410;2023-05-16T14:20:51;2.05;;;0.90;;
32788;SDS011;19141;48.980;8.410;2023-05-16T14:23:20;1.45;;;0.70;;
32788;SDS011;19141;48.980;8.410;2023-05-16T14:25:45;0.90;;;0.90;;
32788;SDS011;19141;48.980;8.410;2023-05-16T14:28:11;1.48;;;0.75;;
32788;SDS011;19141;48.980;8.410;2023-05-16T14:30:36;2.13;;;0.90;;
32788;SDS011;19141;48.980;8.410;2023-05-16T14:33:02;1.10;;;0.90;;
32788;SDS011;19141;48.980;8.410;2023-05-16T14:35:27;1.92;;;1.02;;
32788;SDS011;19141;48.980;8.410;2023-05-16T14:37:53;1.60;;;0.70;;
32788;SDS011;19141;48.980;8.410;2023-05-16T14:40:18;2.20;;;0.80;;
32788;SDS011;19141;48.980;8.410;2023-05-16T14:42:45;0.50;;;0.50;;
32788;SDS011;19141;48.980;8.410;2023-05-16T14:45:11;2.28;;;0.82;;
32788;SDS011;19141;48.980;8.410;2023-05-16T14:47:36;1.23;;;0.68;;
32788;SDS011;19141;48.980;8.410;2023-05-16T14:50:02;0.63;;;0.60;;
32788;SDS011;19141;48.980;8.410;2023-05-16T14:52:27;1.77;;;0.70;;
32788;SDS011;19141;48.980;8.410;2023-05-16T14:54:53;3.65;;;0.60;;
32788;SDS011;19141;48.980;8.410;2023-05-16T14:57:18;2.72;;;0.70;;
32788;SDS011;19141;48.980;8.410;2023-05-16T14:59:44;1.27;;;0.68;;
32788;SDS011;19141;48.980;8.410;2023-05-16T15:02:10;3.03;;;0.98;;
32788;SDS011;19141;48.980;8.410;2023-05-16T15:04:36;3.88;;;0.90;;
32788;SDS011;19141;48.980;8.410;2023-05-16T15:07:01;2.60;;;0.70;;
32788;SDS011;19141;48.980;8.410;2023-05-16T15:09:27;1.05;;;0.65;;
32788;SDS011;19141;48.980;8.410;2023-05-16T15:11:52;2.28;;;0.70;;
32788;SDS011;19141;48.980;8.410;2023-05-16T15:14:17;4.25;;;0.95;;
32788;SDS011;19141;48.980;8.410;2023-05-16T15:16:43;1.85;;;1.00;;
32788;SDS011;19141;48.980;8.410;2023-05-16T15:19:08;0.68;;;0.60;;
32788;SDS011;19141;48.980;8.410;2023-05-16T15:21:34;0.77;;;0.45;;
32788;SDS011;19141;48.980;8.410;2023-05-16T15:23:59;1.48;;;0.80;;
32788;SDS011;19141;48.980;8.410;2023-05-16T15:26:24;0.73;;;0.60;;
32788;SDS011;19141;48.980;8.410;2023-05-16T15:28:50;1.52;;;0.80;;
32788;SDS011;19141;48.980;8.410;2023-05-16T15:31:16;1.00;;;0.52;;
32788;SDS011;19141;48.980;8.410;2023-05-16T15:33:41;2.42;;;1.10;;
32788;SDS011;19141;48.980;8.410;2023-05-16T15:36:07;0.95;;;0.80;;
32788;SDS011;19141;48.980;8.410;2023-05-16T15:38:32;3.42;;;0.88;;
32788;SDS011;19141;48.980;8.410;2023-05-16T15:40:57;2.10;;;0.70;;
32788;SDS011;19141;48.980;8.410;2023-05-16T15:43:23;1.65;;;0.50;;
32788;SDS011;19141;48.980;8.410;2023-05-16T15:45:48;1.27;;;0.60;;
32788;SDS011;19141;48.980;8.410;2023-05-16T15:48:14;1.60;;;0.70;;
32788;SDS011;19141;48.980;8.410;2023-05-16T15:50:39;1.27;;;0.90;;
32788;SDS011;19141;48.980;8.410;2023-05-16T15:53:06;0.80;;;0.70;;
32788;SDS011;19141;48.980;8.410;2023-05-16T15:55:31;1.42;;;0.52;;
32788;SDS011;19141;48.980;8.410;2023-05-16T15:57:56;0.95;;;0.50;;
32788;SDS011;19141;48.980;8.410;2023-05-16T16:00:25;1.85;;;0.70;;
32788;SDS011;19141;48.980;8.410;2023-05-16T16:02:51;4.82;;;0.63;;
32788;SDS011;19141;48.980;8.410;2023-05-16T16:05:17;1.90;;;0.88;;
32788;SDS011;19141;48.980;8.410;2023-05-16T16:07:42;0.95;;;0.68;;
32788;SDS011;19141;48.980;8.410;2023-05-16T16:10:07;2.45;;;0.98;;
32788;SDS011;19141;48.980;8.410;2023-05-16T16:12:33;1.92;;;0.73;;
32788;SDS011;19141;48.980;8.410;2023-05-16T16:15:01;1.75;;;0.85;;
32788;SDS011;19141;48.980;8.410;2023-05-16T16:17:26;0.40;;;0.40;;
32788;SDS011;19141;48.980;8.410;2023-05-16T16:19:52;1.83;;;0.60;;
32788;SDS011;19141;48.980;8.410;2023-05-16T16:22:17;1.63;;;0.70;;
32788;SDS011;19141;48.980;8.410;2023-05-16T16:24:43;1.27;;;0.90;;
32788;SDS011;19141;48.980;8.410;2023-05-16T16:27:08;3.60;;;1.10;;
32788;SDS011;19141;48.980;8.410;2023-05-16T16:29:33;1.25;;;0.70;;
32788;SDS011;19141;48.980;8.410;2023-05-16T16:31:59;2.15;;;0.60;;
32788;SDS011;19141;48.980;8.410;2023-05-16T16:34:24;1.80;;;0.60;;
32788;SDS011;19141;48.980;8.410;2023-05-16T16:36:49;1.38;;;0.50;;
32788;SDS011;19141;48.980;8.410;2023-05-16T16:39:15;0.52;;;0.30;;
32788;SDS011;19141;48.980;8.410;2023-05-16T16:41:40;1.10;;;0.73;;
32788;SDS011;19141;48.980;8.410;2023-05-16T16:44:06;1.02;;;0.60;;
32788;SDS011;19141;48.980;8.410;2023-05-16T16:46:32;2.17;;;0.60;;
32788;SDS011;19141;48.980;8.410;2023-05-16T16:48:57;0.52;;;0.50;;
32788;SDS011;19141;48.980;8.410;2023-05-16T16:51:22;1.48;;;0.50;;
32788;SDS011;19141;48.980;8.410;2023-05-16T16:53:48;0.52;;;0.40;;
32788;SDS011;19141;48.980;8.410;2023-05-16T16:56:13;0.98;;;0.60;;
32788;SDS011;19141;48.980;8.410;2023-05-16T16:58:39;0.40;;;0.40;;
32788;SDS011;19141;48.980;8.410;2023-05-16T17:01:04;1.02;;;0.73;;
32788;SDS011;19141;48.980;8.410;2023-05-16T17:03:31;0.63;;;0.43;;
32788;SDS011;19141;48.980;8.410;2023-05-16T17:05:56;1.05;;;0.50;;
32788;SDS011;19141;48.980;8.410;2023-05-16T17:08:21;0.35;;;0.30;;
32788;SDS011;19141;48.980;8.410;2023-05-16T17:10:47;2.63;;;0.38;;
32788;SDS011;19141;48.980;8.410;2023-05-16T17:13:12;0.68;;;0.50;;
32788;SDS011;19141;48.980;8.410;2023-05-16T17:15:38;3.20;;;0.30;;
32788;SDS011;19141;48.980;8.410;2023-05-16T17:18:04;1.05;;;0.50;;
32788;SDS011;19141;48.980;8.410;2023-05-16T17:20:31;0.60;;;0.60;;
32788;SDS011;19141;48.980;8.410;2023-05-16T17:22:58;0.40;;;0.30;;
32788;SDS011;19141;48.980;8.410;2023-05-16T17:25:24;0.80;;;0.40;;
32788;SDS011;19141;48.980;8.410;2023-05-16T17:27:50;0.50;;;0.43;;
32788;SDS011;19141;48.980;8.410;2023-05-16T17:30:15;0.40;;;0.40;;
32788;SDS011;19141;48.980;8.410;2023-05-16T17:32:41;1.73;;;0.77;;
32788;SDS011;19141;48.980;8.410;2023-05-16T17:35:06;0.40;;;0.40;;
32788;SDS011;19141;48.980;8.410;2023-05-16T17:37:32;6.85;;;4.00;;
32788;SDS011;19141;48.980;8.410;2023-05-16T17:39:58;2.80;;;0.70;;
32788;SDS011;19141;48.980;8.410;2023-05-16T17:42:23;1.40;;;0.30;;
32788;SDS011;19141;48.980;8.410;2023-05-16T17:44:49;0.63;;;0.57;;
32788;SDS011;19141;48.980;8.410;2023-05-16T17:47:14;1.42;;;0.63;;
32788;SDS011;19141;48.980;8.410;2023-05-16T17:49:40;0.60;;;0.60;;
32788;SDS011;19141;48.980;8.410;2023-05-16T17:52:06;1.88;;;0.70;;
32788;SDS011;19141;48.980;8.410;2023-05-16T17:54:31;0.40;;;0.40;;
32788;SDS011;19141;48.980;8.410;2023-05-16T17:56:57;0.57;;;0.43;;
32788;SDS011;19141;48.980;8.410;2023-05-16T17:59:24;2.97;;;0.70;;
32788;SDS011;19141;48.980;8.410;2023-05-16T18:01:51;0.35;;;0.35;;
32788;SDS011;19141;48.980;8.410;2023-05-16T18:04:17;2.47;;;0.63;;
32788;SDS011;19141;48.980;8.410;2023-05-16T18:06:44;1.23;;;0.70;;
32788;SDS011;19141;48.980;8.410;2023-05-16T18:09:12;0.98;;;0.60;;
32788;SDS011;19141;48.980;8.410;2023-05-16T18:11:39;3.85;;;0.40;;
32788;SDS011;19141;48.980;8.410;2023-05-16T18:14:05;0.55;;;0.47;;
32788;SDS011;19141;48.980;8.410;2023-05-16T18:16:33;0.43;;;0.38;;
32788;SDS011;19141;48.980;8.410;2023-05-16T18:18:59;1.20;;;0.52;;
32788;SDS011;19141;48.980;8.410;2023-05-16T18:21:25;0.70;;;0.38;;
32788;SDS011;19141;48.980;8.410;2023-05-16T18:23:51;0.75;;;0.52;;
32788;SDS011;19141;48.980;8.410;2023-05-16T18:26:18;0.50;;;0.50;;
32788;SDS011;19141;48.980;8.410;2023-05-16T18:28:44;0.73;;;0.40;;
32788;SDS011;19141;48.980;8.410;2023-05-16T18:31:10;1.23;;;0.60;;
32788;SDS011;19141;48.980;8.410;2023-05-16T18:33:36;0.68;;;0.50;;
32788;SDS011;19141;48.980;8.410;2023-05-16T18:36:02;0.70;;;0.40;;
32788;SDS011;19141;48.980;8.410;2023-05-16T18:38:28;0.57;;;0.32;;
32788;SDS011;19141;48.980;8.410;2023-05-16T18:40:53;0.57;;;0.20;;
32788;SDS011;19141;48.980;8.410;2023-05-16T18:43:19;2.10;;;0.50;;
32788;SDS011;19141;48.980;8.410;2023-05-16T18:45:44;0.73;;;0.40;;
32788;SDS011;19141;48.980;8.410;2023-05-16T18:48:10;2.40;;;0.80;;
32788;SDS011;19141;48.980;8.410;2023-05-16T18:50:35;3.53;;;0.93;;
32788;SDS011;19141;48.980;8.410;2023-05-16T18:53:01;2.63;;;0.80;;
32788;SDS011;19141;48.980;8.410;2023-05-16T18:55:26;0.63;;;0.45;;
32788;SDS011;19141;48.980;8.410;2023-05-16T18:57:52;0.88;;;0.38;;
32788;SDS011;19141;48.980;8.410;2023-05-16T19:00:17;0.80;;;0.50;;
32788;SDS011;19141;48.980;8.410;2023-05-16T19:02:44;0.65;;;0.40;;
32788;SDS011;19141;48.980;8.410;2023-05-16T19:05:10;0.93;;;0.40;;
32788;SDS011;19141;48.980;8.410;2023-05-16T19:07:35;2.42;;;1.17;;
32788;SDS011;19141;48.980;8.410;2023-05-16T19:10:01;2.53;;;1.05;;
32788;SDS011;19141;48.980;8.410;2023-05-16T19:12:26;1.13;;;0.73;;
32788;SDS011;19141;48.980;8.410;2023-05-16T19:14:52;0.93;;;0.80;;
32788;SDS011;19141;48.980;8.410;2023-05-16T19:17:17;0.88;;;0.55;;
32788;SDS011;19141;48.980;8.410;2023-05-16T19:19:42;2.05;;;0.60;;
32788;SDS011;19141;48.980;8.410;2023-05-16T19:22:08;1.10;;;0.70;;